Bode, IA (50519)

13:16 CDT le 02 juillet 2015 (GMT -0500)
Farm Acreage | | Change Station
CLOSE
Current Station
Stations météorologiques personnelles
Location: Bode, IA
Altitude: 1130 ft
Stations météo à proximité

Alt. 1130 ft 42.96 °N, 94.29 °W | Updated 1 minute ago

Partiellement nuageux
Partiellement nuageux
71.5 ° F
Paraît 75 ° F
N
2.0
Vent Variable Vent de SE
Gusts 8.0 mph

Aujourd'hui
Haut(e) -- | Bas -- ° F
--% Risque de précip.
Hier
Haut(e) -- | Bas -- ° F
Precip. -- pouce
5:42 AM 8:59 PM
Lune gibbeuse croissante, 99% visible
Pression 30.01 pouce
Visibilité 10.0 Miles terrestres
Nuages Ciel dégagé
indice de chaleur 75 ° F
Point de rosée 59 ° F
Humidité 64%
Précipitations 0.00 pouce
Profondeur de la couche neigeuse Non disponible.
UV 12 sur 12
Pollen 2.80 sur 12
Qualité de l'air Non disponible.
Flu Activity Non disponible.
METAR KFOD 021815Z AUTO 12010KT 10SM CLR 21/13 A3001 RMK AO1

More Conditions Fewer Conditions

Pression 30.01 pouce
Visibilité 10.0 Miles terrestres
Nuages Ciel dégagé
indice de chaleur 75 ° F
Point de rosée 59 ° F
Humidité 64%
Précipitations 0.00 pouce
Profondeur de la couche neigeuse Non disponible.
UV 12 sur 12
Pollen 2.80 sur 12
Qualité de l'air Non disponible.
Flu Activity Non disponible.
METAR KFOD 021815Z AUTO 12010KT 10SM CLR 21/13 A3001 RMK AO1

More Conditions Fewer Conditions

10-Day Weather Forecast

×

Almanac

Astronomie

Jul. 02, 2015 Lever Coucher
Temps réel
Crépuscule civil
Crépuscule nautique
Crépuscule astronomique
Lune
Durée de lumière visible
Longueur du jour
Tomorrow will be .
, % of the Moon is Illuminated

Extrêmes aujourd'hui

State Highs State Lows

Community

WunderPhotos

Upload Photos

1,834,507 Photos téléchargées !

WunderBlogs® & News

Nearby

Qualité de l'air

  Qualité de l'air Indice de la qualité de l'air Polluant
Not available.

Épaisseur de neige

Station Depth Altitude

Activité sismique

Ville Distance Mag. Time & Date
Minimum magnitude displayed is 2.5.

Températures des eaux côtières

Lieu Température

Stations

Stations météo à proximité

Emplacement de la station Température Refroidissement éolien Point de rosée Humidité Vent Precip. Alt. Mise à jour Type